logo
Search for airport 
image banner adimage banner adimage banner ad
image banner ad

FACF - St Francis Field

Located in St Francis Bay, South Africa

ICAO - FACF, IATA -

Data provided by Airmate  

General information

Coordinates: S34°11'16" E24°49'54"
Elevation is 134 feet MSL.
Magnetic variation is -28° East
View others Airports in Eastern Cape

Operational data

Special qualification required
Current time UTC:
Current local time:
METAR: FAPE 180945Z 24015KT 9999 FEW005 20/14 Q1019 NOSIG
TAF: TAF AMD FAPE 180852Z 1806/1906 24018KT 8000 OVC003 TX23/1811Z TN15/1903Z BECMG 1809/1811 SCT010 BECMG 1814/1816 26005KT BKN008 TEMPO 1820/1906 2000 BR BKN002 PROB40 TEMPO 1900/1905 0500 FG BKN001
View NOTAMs / SUP AIP / TFR affecting this airport [VIEW]
Communications frequencies: [VIEW]

Runways:

RWY identifierQFULength (ft)Width (ft)SurfaceLDA (ft)
1081°328674GRAS3609
28261°328674GRAS3609

Airport contact information

Address: St Francis Bay South Africa

Satellite view of FACF